Time;durP1;ratioP1;P1;durP2;ratioP2;P2;SDS_P1;SDS_P2;PMS_P1;PMS_P2;Temp;Humidity;BMP_temperature;BMP_pressure;BME280_temperature;BME280_humidity;BME280_pressure;Samples;Min_cycle;Max_cycle;Signal;HPM_P1;HPM_P2
2022/01/05 00:01:36;;;;;;;5.27;2.00;;;;;;;7.22;100.00;98985.94;5086577;28;20309;-60
2022/01/05 00:04:06;;;;;;;2.93;2.00;;;;;;;7.14;100.00;98979.66;5068127;28;20613;-60
2022/01/05 00:06:33;;;;;;;3.30;1.77;;;;;;;7.31;100.00;98977.88;5079824;28;20224;-57
2022/01/05 00:09:01;;;;;;;3.20;1.63;;;;;;;7.54;100.00;98981.53;5081278;28;20244;-60
2022/01/05 00:11:29;;;;;;;2.97;1.70;;;;;;;7.49;100.00;98975.09;5081768;28;20209;-61
2022/01/05 00:13:58;;;;;;;3.20;1.67;;;;;;;7.30;100.00;98959.63;5055859;28;20210;-61
2022/01/05 00:16:25;;;;;;;3.37;1.60;;;;;;;7.16;100.00;98964.53;5069000;28;20213;-61
2022/01/05 00:18:53;;;;;;;4.23;1.80;;;;;;;7.18;100.00;98962.56;5066792;28;20778;-60
2022/01/05 00:21:22;;;;;;;10.00;2.00;;;;;;;7.21;100.00;98957.94;5072361;28;20448;-60
2022/01/05 00:23:50;;;;;;;3.00;1.73;;;;;;;7.37;100.00;98942.97;5069050;28;20252;-60
2022/01/05 00:26:18;;;;;;;4.03;1.90;;;;;;;7.31;100.00;98934.88;5074081;28;20233;-60
2022/01/05 00:28:45;;;;;;;3.70;2.30;;;;;;;7.32;100.00;98932.06;5083854;28;20219;-60
2022/01/05 00:31:13;;;;;;;4.50;2.47;;;;;;;7.40;100.00;98928.59;5078276;28;20264;-60
2022/01/05 00:33:41;;;;;;;7.27;2.20;;;;;;;7.61;100.00;98925.47;5073245;28;20216;-60
2022/01/05 00:36:09;;;;;;;4.03;1.90;;;;;;;7.52;100.00;98919.38;5072344;28;20313;-60
2022/01/05 00:38:38;;;;;;;3.80;1.77;;;;;;;7.60;99.14;98924.66;5056944;28;20317;-60
2022/01/05 00:41:06;;;;;;;3.13;1.73;;;;;;;7.78;97.72;98922.66;5086753;28;20691;-60
2022/01/05 00:43:34;;;;;;;2.43;1.20;;;;;;;7.56;97.16;98916.22;5079854;28;20706;-61
2022/01/05 00:46:01;;;;;;;2.07;1.10;;;;;;;7.79;95.12;98911.09;5080949;28;20586;-60
2022/01/05 00:48:32;;;;;;;5.27;1.10;;;;;;;7.85;94.00;98913.06;5086592;28;20720;-59
2022/01/05 00:51:02;;;;;;;2.13;0.80;;;;;;;7.85;93.29;98915.69;5081732;28;20213;-59
2022/01/05 00:53:30;;;;;;;2.83;0.83;;;;;;;7.82;93.00;98923.16;5085706;28;20268;-60
2022/01/05 00:55:59;;;;;;;0.60;0.40;;;;;;;7.79;90.52;98928.75;5081084;28;20213;-61
2022/01/05 00:58:27;;;;;;;1.33;0.40;;;;;;;7.80;89.16;98925.13;5076843;28;20223;-60
2022/01/05 01:00:57;;;;;;;0.93;0.30;;;;;;;8.01;88.49;98938.59;5056292;28;20277;-62
2022/01/05 01:03:27;;;;;;;0.33;0.20;;;;;;;8.13;87.47;98949.63;5071559;28;20206;-61
2022/01/05 01:05:55;;;;;;;0.77;0.40;;;;;;;8.14;87.11;98935.44;5072402;28;20294;-60
2022/01/05 01:08:23;;;;;;;1.10;0.40;;;;;;;8.11;86.92;98941.88;5084409;28;20217;-60
2022/01/05 01:10:51;;;;;;;0.97;0.40;;;;;;;7.98;87.06;98933.66;5082271;28;20244;-60
2022/01/05 01:13:21;;;;;;;0.80;0.30;;;;;;;8.22;86.78;98932.75;5083276;28;20219;-61
2022/01/05 01:15:50;;;;;;;0.90;0.27;;;;;;;8.27;86.80;98933.88;5057452;28;20208;-60
2022/01/05 01:18:18;;;;;;;0.90;0.30;;;;;;;8.32;86.00;98946.63;5072111;28;20231;-60
2022/01/05 01:20:47;;;;;;;1.20;0.70;;;;;;;8.36;86.40;98947.91;5069140;28;20250;-60
2022/01/05 01:23:18;;;;;;;1.60;0.63;;;;;;;8.40;85.71;98951.06;5075577;28;20501;-61
2022/01/05 01:25:46;;;;;;;0.80;0.40;;;;;;;8.33;86.22;98953.56;5081240;28;20228;-60
2022/01/05 01:28:14;;;;;;;0.77;0.30;;;;;;;8.22;86.55;98956.53;5055807;28;20299;-61
2022/01/05 01:30:43;;;;;;;1.73;0.43;;;;;;;8.28;86.71;98953.19;5086302;28;20214;-60
2022/01/05 01:33:12;;;;;;;1.23;0.40;;;;;;;7.99;86.96;98958.25;5075573;28;20587;-60
2022/01/05 01:35:39;;;;;;;1.03;0.30;;;;;;;7.74;89.28;98952.97;5075538;28;20393;-60
2022/01/05 01:38:08;;;;;;;0.60;0.30;;;;;;;8.15;88.65;98963.47;5073098;28;20346;-60
2022/01/05 01:40:35;;;;;;;2.40;0.50;;;;;;;7.96;87.48;98966.50;5054184;28;20227;-60
2022/01/05 01:43:03;;;;;;;1.03;0.30;;;;;;;7.84;88.47;98968.63;5057017;28;20306;-60
2022/01/05 01:45:31;;;;;;;0.83;0.23;;;;;;;8.02;87.54;98956.06;5072825;28;20226;-60
2022/01/05 01:48:01;;;;;;;0.53;0.30;;;;;;;8.15;88.26;98952.91;5080780;28;20273;-60
2022/01/05 01:50:28;;;;;;;1.20;0.50;;;;;;;8.25;86.94;98959.66;5070592;28;20246;-60
2022/01/05 01:52:56;;;;;;;2.90;0.33;;;;;;;8.27;86.12;98964.75;5077792;28;20238;-61
2022/01/05 01:55:24;;;;;;;0.77;0.30;;;;;;;8.36;85.97;98965.56;5084654;28;20314;-60
2022/01/05 01:57:52;;;;;;;1.40;0.50;;;;;;;8.24;85.71;98967.75;5083498;28;20298;-60
2022/01/05 02:00:19;;;;;;;2.90;0.60;;;;;;;8.27;85.52;98967.38;5080069;28;20298;-61
2022/01/05 02:02:47;;;;;;;1.43;0.50;;;;;;;8.20;86.42;98953.22;5071219;28;20216;-60
2022/01/05 02:05:17;;;;;;;1.63;0.60;;;;;;;7.92;85.99;98960.72;5090836;28;20694;-61
2022/01/05 02:07:44;;;;;;;1.40;0.60;;;;;;;8.14;86.88;98964.47;5071397;28;20221;-61
2022/01/05 02:10:12;;;;;;;7.40;0.80;;;;;;;8.05;86.98;98965.47;5078348;28;20309;-61
2022/01/05 02:12:40;;;;;;;1.87;0.57;;;;;;;7.90;86.77;98957.44;5081824;28;20301;-60
2022/01/05 02:15:09;;;;;;;2.23;0.57;;;;;;;8.07;87.86;98956.41;5068241;28;20244;-60
2022/01/05 02:17:47;;;;;;;0.90;0.53;;;;;;;8.10;87.88;98963.16;5090097;28;20257;-60
2022/01/05 02:20:19;;;;;;;2.80;0.60;;;;;;;8.21;86.98;98978.63;5056638;28;20236;-61
2022/01/05 02:22:48;;;;;;;2.70;0.60;;;;;;;8.25;86.08;98972.88;5069964;28;20380;-60
2022/01/05 02:25:17;;;;;;;1.67;0.70;;;;;;;8.27;86.13;98981.41;5069725;28;20257;-61
2022/01/05 02:27:46;;;;;;;2.33;1.07;;;;;;;7.80;88.42;98975.25;5082000;28;20613;-59
2022/01/05 02:30:20;;;;;;;2.50;0.73;;;;;;;7.91;88.28;98981.03;5055629;28;20307;-61
2022/01/05 02:32:52;;;;;;;1.50;0.50;;;;;;;7.87;88.67;98963.88;5086811;28;20266;-60
2022/01/05 02:35:21;;;;;;;2.60;0.77;;;;;;;8.06;88.38;98973.25;5081112;28;20340;-60
2022/01/05 02:37:53;;;;;;;3.03;0.70;;;;;;;7.64;89.84;98960.28;5068054;28;20215;-60
2022/01/05 02:40:23;;;;;;;2.77;0.70;;;;;;;7.96;88.20;98954.13;5065744;28;20218;-60
2022/01/05 02:42:53;;;;;;;2.73;0.80;;;;;;;8.00;87.45;98941.41;5055963;28;20690;-60
2022/01/05 02:45:22;;;;;;;2.27;0.87;;;;;;;7.89;87.28;98946.06;5090283;28;20201;-61
2022/01/05 02:47:50;;;;;;;1.80;0.77;;;;;;;8.17;86.02;99048.63;5084035;28;20214;-60
2022/01/05 02:50:17;;;;;;;3.50;1.33;;;;;;;7.53;81.22;99066.09;5067131;28;20614;-60
2022/01/05 02:52:45;;;;;;;2.43;0.67;;;;;;;6.94;78.52;99086.38;5063178;28;20242;-60
2022/01/05 02:55:14;;;;;;;1.57;0.50;;;;;;;6.98;79.32;99087.69;5073304;28;20223;-61
2022/01/05 02:57:42;;;;;;;0.90;0.30;;;;;;;7.09;78.33;99097.13;5089468;28;20309;-60
2022/01/05 03:00:12;;;;;;;0.50;0.40;;;;;;;6.90;77.95;99110.53;5071115;28;20357;-60
2022/01/05 03:02:40;;;;;;;0.60;0.40;;;;;;;6.28;78.39;99120.38;5072431;28;20448;-61
2022/01/05 03:05:09;;;;;;;0.70;0.30;;;;;;;6.22;79.69;99121.00;5069039;28;20812;-60
2022/01/05 03:07:39;;;;;;;1.03;0.40;;;;;;;6.65;79.00;99126.22;5083366;28;20213;-58
2022/01/05 03:10:09;;;;;;;0.40;0.30;;;;;;;6.66;78.70;99121.78;5074252;28;20259;-61
2022/01/05 03:12:40;;;;;;;0.67;0.40;;;;;;;6.48;78.45;99121.00;5078977;28;20563;-60
2022/01/05 03:15:09;;;;;;;1.10;0.40;;;;;;;6.29;78.72;99127.28;5079820;28;20654;-61
2022/01/05 03:17:37;;;;;;;0.70;0.40;;;;;;;6.30;78.88;99135.06;5082140;28;20204;-61
2022/01/05 03:20:07;;;;;;;0.57;0.40;;;;;;;6.47;78.63;99124.63;5085362;28;20608;-60
2022/01/05 03:22:34;;;;;;;1.93;0.40;;;;;;;6.36;79.07;99139.69;5075706;28;20255;-60
2022/01/05 03:25:03;;;;;;;0.83;0.50;;;;;;;6.40;78.23;99135.78;5062954;28;20239;-60
2022/01/05 03:27:30;;;;;;;0.60;0.50;;;;;;;6.45;79.18;99137.94;5073904;28;20199;-60
2022/01/05 03:30:00;;;;;;;1.60;0.70;;;;;;;6.56;79.13;99134.22;5080158;28;20284;-59
2022/01/05 03:32:36;;;;;;;1.13;0.77;;;;;;;6.50;79.16;99154.13;5082081;28;20240;-59
2022/01/05 03:35:05;;;;;;;1.93;0.60;;;;;;;6.76;78.36;99143.59;5087518;28;20232;-59
2022/01/05 03:37:33;;;;;;;1.23;0.60;;;;;;;6.66;78.24;99161.31;5079981;28;20211;-59
2022/01/05 03:40:01;;;;;;;1.57;0.87;;;;;;;6.29;78.02;99170.25;5071947;28;20224;-60
2022/01/05 03:42:28;;;;;;;1.10;0.47;;;;;;;6.48;79.26;99168.41;5070500;28;20476;-60
2022/01/05 03:44:56;;;;;;;2.50;0.70;;;;;;;6.35;78.76;99185.41;5083185;28;20244;-59
2022/01/05 03:47:25;;;;;;;1.20;0.60;;;;;;;6.56;78.44;99197.44;5086700;28;20207;-60
2022/01/05 03:49:53;;;;;;;1.70;0.70;;;;;;;6.56;79.01;99186.91;5058132;28;20219;-60
2022/01/05 03:52:21;;;;;;;1.13;0.57;;;;;;;6.51;78.64;99205.00;5069030;28;20389;-60
2022/01/05 03:54:48;;;;;;;0.93;0.40;;;;;;;6.51;77.13;99220.78;5078494;28;20223;-60
2022/01/05 03:57:16;;;;;;;0.53;0.40;;;;;;;6.24;78.23;99225.16;5072739;28;20210;-60
2022/01/05 03:59:44;;;;;;;0.77;0.30;;;;;;;6.70;77.19;99231.13;5072376;28;20338;-60
2022/01/05 04:02:12;;;;;;;1.33;0.50;;;;;;;6.73;77.48;99241.34;5075886;28;20219;-60
2022/01/05 04:04:41;;;;;;;0.67;0.33;;;;;;;6.70;76.44;99252.19;5079176;28;20202;-60
2022/01/05 04:07:09;;;;;;;0.90;0.53;;;;;;;6.56;77.48;99244.84;5059647;28;20209;-60
2022/01/05 04:09:37;;;;;;;0.60;0.43;;;;;;;6.76;76.45;99262.16;5071520;28;20238;-60
2022/01/05 04:12:06;;;;;;;1.43;0.50;;;;;;;6.63;76.19;99277.50;5059315;28;20204;-60
2022/01/05 04:14:34;;;;;;;1.30;0.77;;;;;;;6.59;76.31;99276.16;5079287;28;20216;-60
2022/01/05 04:17:05;;;;;;;3.87;0.60;;;;;;;6.46;76.89;99286.22;5078393;28;20278;-60
2022/01/05 04:19:33;;;;;;;0.90;0.50;;;;;;;6.51;76.19;99286.63;5082356;28;20250;-59
2022/01/05 04:22:02;;;;;;;0.90;0.40;;;;;;;6.70;76.48;99294.34;5081957;28;20212;-59
2022/01/05 04:24:30;;;;;;;3.73;0.80;;;;;;;6.79;75.59;99294.25;5067871;28;20229;-59
2022/01/05 04:26:58;;;;;;;3.53;0.60;;;;;;;6.81;74.29;99299.38;5058409;28;20212;-61
2022/01/05 04:29:25;;;;;;;2.20;0.87;;;;;;;6.63;74.30;99303.84;5075561;28;20319;-59
2022/01/05 04:31:53;;;;;;;5.40;1.27;;;;;;;6.59;75.12;99303.31;5080572;28;20647;-59
2022/01/05 04:34:21;;;;;;;3.00;0.70;;;;;;;6.62;75.94;99308.28;5067942;28;20205;-60
2022/01/05 04:37:10;;;;;;;4.47;0.60;;;;;;;6.40;74.79;99309.56;5069251;28;20208;-59
2022/01/05 04:39:38;;;;;;;3.53;0.80;;;;;;;6.38;75.13;99308.06;5066699;28;20587;-60
2022/01/05 04:42:07;;;;;;;4.93;0.80;;;;;;;6.47;74.71;99314.22;5073292;28;20551;-60
2022/01/05 04:44:35;;;;;;;2.87;0.73;;;;;;;6.56;74.04;99308.88;5070674;28;20303;-60
2022/01/05 04:47:04;;;;;;;3.40;0.60;;;;;;;6.12;74.85;99310.56;5080127;28;20208;-60
2022/01/05 04:49:32;;;;;;;2.63;0.70;;;;;;;6.44;75.72;99302.19;5087498;28;20211;-60
2022/01/05 04:52:00;;;;;;;0.97;0.50;;;;;;;6.72;74.44;99318.72;5080011;28;20221;-60
2022/01/05 04:54:29;;;;;;;2.67;0.40;;;;;;;6.63;74.33;99331.00;5064007;28;20214;-60
2022/01/05 04:56:57;;;;;;;2.23;0.50;;;;;;;6.48;74.14;99336.94;5064229;28;20265;-60
2022/01/05 04:59:25;;;;;;;1.43;0.50;;;;;;;6.55;75.27;99359.91;5067013;28;20212;-60
2022/01/05 05:01:52;;;;;;;2.30;0.50;;;;;;;6.34;75.65;99368.06;5080855;28;20207;-61
2022/01/05 05:04:20;;;;;;;1.90;0.50;;;;;;;6.64;75.46;99379.25;5075256;28;20654;-60
2022/01/05 05:06:49;;;;;;;2.83;0.40;;;;;;;6.80;74.68;99380.22;5065190;28;20308;-60
2022/01/05 05:09:18;;;;;;;2.03;0.60;;;;;;;6.85;74.84;99384.22;5073677;28;20223;-60
2022/01/05 05:11:48;;;;;;;2.37;0.37;;;;;;;6.43;75.17;99390.88;5082449;28;20299;-59
2022/01/05 05:14:15;;;;;;;1.10;0.40;;;;;;;6.70;74.22;99389.19;5063220;28;20210;-61
2022/01/05 05:16:43;;;;;;;0.90;0.30;;;;;;;6.84;73.67;99396.59;5080081;28;20298;-60
2022/01/05 05:19:11;;;;;;;1.73;0.40;;;;;;;6.67;73.04;99411.41;5080722;28;20300;-60
2022/01/05 05:21:39;;;;;;;4.27;0.57;;;;;;;6.91;72.66;99410.81;5075489;28;20219;-60
2022/01/05 05:24:07;;;;;;;2.37;0.83;;;;;;;6.88;72.59;99413.72;5075223;28;20244;-61
2022/01/05 05:26:34;;;;;;;2.57;0.80;;;;;;;6.91;72.78;99423.97;5072502;28;20212;-60
2022/01/05 05:29:03;;;;;;;4.40;0.80;;;;;;;6.68;71.20;99433.31;5077899;28;20215;-59
2022/01/05 05:31:31;;;;;;;4.03;0.60;;;;;;;6.78;71.36;99441.94;5064654;28;20257;-59
2022/01/05 05:33:59;;;;;;;1.43;0.30;;;;;;;6.78;71.86;99455.13;5062927;28;20320;-59
2022/01/05 05:36:27;;;;;;;5.17;0.70;;;;;;;6.70;72.09;99455.88;5087134;28;20218;-59
2022/01/05 05:38:55;;;;;;;3.50;0.70;;;;;;;6.73;72.87;99463.50;5089475;28;20228;-59
2022/01/05 05:41:22;;;;;;;3.40;0.70;;;;;;;6.67;72.69;99460.63;5082107;28;20232;-59
2022/01/05 05:43:50;;;;;;;3.33;0.70;;;;;;;6.69;72.39;99456.00;5082284;28;20238;-61
2022/01/05 05:46:20;;;;;;;3.43;0.80;;;;;;;6.64;72.55;99463.53;5061023;28;20226;-60
2022/01/05 05:48:47;;;;;;;1.40;0.60;;;;;;;6.59;72.73;99476.34;5076181;28;20204;-60
2022/01/05 05:51:15;;;;;;;2.63;0.60;;;;;;;6.51;72.58;99478.88;5070889;28;20209;-60
2022/01/05 05:53:43;;;;;;;4.70;0.50;;;;;;;6.50;72.52;99493.00;5079264;28;20228;-60
2022/01/05 05:56:11;;;;;;;3.90;0.97;;;;;;;6.12;71.69;99500.09;5075461;28;20245;-60
2022/01/05 05:58:38;;;;;;;3.30;0.60;;;;;;;6.37;71.22;99494.16;5072058;28;20213;-61
2022/01/05 06:01:06;;;;;;;2.13;0.50;;;;;;;6.45;70.50;99485.53;5070150;28;20708;-59
2022/01/05 06:03:35;;;;;;;3.03;0.60;;;;;;;6.56;69.95;99495.06;5091056;28;20209;-59
2022/01/05 06:06:03;;;;;;;3.73;0.80;;;;;;;6.49;69.94;99486.09;5080064;28;20303;-59
2022/01/05 06:08:31;;;;;;;3.43;0.87;;;;;;;6.51;70.71;99494.69;5070299;28;20217;-58
2022/01/05 06:10:59;;;;;;;3.57;1.00;;;;;;;6.59;70.46;99494.78;5064315;28;20222;-58
2022/01/05 06:13:26;;;;;;;2.70;0.70;;;;;;;6.61;70.48;99495.44;5071388;28;20350;-59
2022/01/05 06:15:54;;;;;;;3.90;1.20;;;;;;;6.47;68.78;99511.72;5074962;28;20235;-59
2022/01/05 06:18:22;;;;;;;3.03;1.07;;;;;;;6.54;67.88;99529.44;5061714;28;20229;-59
2022/01/05 06:20:51;;;;;;;6.60;1.17;;;;;;;6.39;67.74;99531.72;5070871;28;20234;-60
2022/01/05 06:23:19;;;;;;;4.03;1.20;;;;;;;6.28;67.31;99539.78;5079188;28;20291;-61
2022/01/05 06:25:47;;;;;;;3.50;0.90;;;;;;;6.27;67.55;99559.19;5088127;28;20227;-60
2022/01/05 06:28:14;;;;;;;2.97;1.10;;;;;;;6.35;67.57;99554.03;5085431;28;20298;-60
2022/01/05 06:30:42;;;;;;;4.30;1.40;;;;;;;6.49;67.56;99565.94;5077380;28;20209;-61
2022/01/05 06:33:10;;;;;;;1.83;0.73;;;;;;;6.12;67.26;99565.88;5069338;28;20237;-58
2022/01/05 06:35:38;;;;;;;3.23;1.07;;;;;;;6.31;66.91;99578.19;5069760;28;20245;-61
2022/01/05 06:38:07;;;;;;;5.30;1.30;;;;;;;6.12;68.02;99580.84;5072189;28;20211;-61
2022/01/05 06:40:35;;;;;;;2.97;1.10;;;;;;;6.23;67.41;99581.53;5071651;28;20212;-61
2022/01/05 06:43:03;;;;;;;2.80;1.07;;;;;;;6.22;68.16;99585.13;5068532;28;20797;-60
2022/01/05 06:45:32;;;;;;;5.53;1.30;;;;;;;6.46;68.04;99604.88;5075392;28;20303;-60
2022/01/05 06:47:59;;;;;;;5.80;1.30;;;;;;;6.23;66.66;99613.09;5070331;28;20216;-59
2022/01/05 06:50:28;;;;;;;6.43;1.20;;;;;;;5.95;64.89;99604.28;5056024;28;20749;-59
2022/01/05 06:52:56;;;;;;;7.37;1.10;;;;;;;5.80;64.26;99621.41;5083080;28;20227;-60
2022/01/05 06:55:25;;;;;;;7.47;1.20;;;;;;;5.91;64.53;99617.84;5073805;28;20212;-60
2022/01/05 06:57:53;;;;;;;8.33;1.30;;;;;;;5.89;63.81;99625.06;5068683;28;20231;-61
2022/01/05 07:00:23;;;;;;;4.97;1.50;;;;;;;5.70;63.75;99627.66;5080054;28;20674;-59
2022/01/05 07:02:51;;;;;;;3.07;1.17;;;;;;;5.98;64.31;99638.19;5070634;28;20223;-58
2022/01/05 07:05:19;;;;;;;3.37;1.43;;;;;;;6.00;64.31;99641.50;5082197;28;20736;-59
2022/01/05 07:07:47;;;;;;;5.80;1.20;;;;;;;5.94;63.34;99638.63;5079132;28;20617;-60
2022/01/05 07:10:15;;;;;;;5.03;1.43;;;;;;;5.74;62.55;99644.78;5080860;28;20736;-59
2022/01/05 07:12:48;;;;;;;6.50;1.30;;;;;;;5.78;63.29;99643.56;5080922;28;20693;-59
2022/01/05 07:15:17;;;;;;;4.53;1.20;;;;;;;5.73;62.36;99640.50;5068669;28;20298;-60
2022/01/05 07:17:44;;;;;;;3.17;1.23;;;;;;;5.83;62.37;99652.69;5075323;28;20242;-59
2022/01/05 07:20:13;;;;;;;4.07;0.90;;;;;;;5.73;62.27;99658.91;5075487;28;20220;-56
2022/01/05 07:22:41;;;;;;;6.73;1.10;;;;;;;5.70;61.18;99667.09;5076437;28;20223;-60
2022/01/05 07:25:09;;;;;;;10.10;1.80;;;;;;;5.49;62.26;99665.38;5072020;28;20227;-60
2022/01/05 07:27:37;;;;;;;4.20;1.17;;;;;;;5.54;61.83;99668.44;5088415;28;20404;-60
2022/01/05 07:30:08;;;;;;;4.53;1.10;;;;;;;5.52;62.27;99673.03;5081890;28;20682;-60
2022/01/05 07:32:36;;;;;;;6.10;1.27;;;;;;;5.58;61.82;99677.72;5080776;28;20303;-60
2022/01/05 07:35:05;;;;;;;4.67;1.27;;;;;;;5.63;61.91;99683.41;5069059;28;20211;-61
2022/01/05 07:37:33;;;;;;;4.50;1.23;;;;;;;5.62;62.03;99687.03;5054237;28;20216;-61
2022/01/05 07:40:00;;;;;;;6.37;1.60;;;;;;;5.45;61.54;99689.47;5089397;28;20274;-60
2022/01/05 07:42:33;;;;;;;6.93;1.90;;;;;;;5.76;62.16;99698.09;5067787;28;20276;-61
2022/01/05 07:45:01;;;;;;;5.73;1.30;;;;;;;5.57;61.82;99714.69;5076552;28;20223;-61
2022/01/05 07:47:30;;;;;;;6.70;1.93;;;;;;;5.64;61.61;99719.25;5079761;28;20211;-59
2022/01/05 07:49:58;;;;;;;9.13;1.40;;;;;;;5.58;61.50;99722.44;5070933;28;20653;-60
2022/01/05 07:52:26;;;;;;;4.17;1.23;;;;;;;5.56;61.43;99728.78;5075151;28;20235;-60
2022/01/05 07:54:54;;;;;;;7.93;1.40;;;;;;;5.70;60.82;99738.13;5069687;28;20222;-60
2022/01/05 07:57:22;;;;;;;9.47;1.60;;;;;;;5.53;61.05;99745.69;5076354;28;20210;-59
2022/01/05 07:59:50;;;;;;;8.40;2.37;;;;;;;5.51;61.39;99750.25;5076105;28;20251;-60
2022/01/05 08:02:17;;;;;;;6.33;1.47;;;;;;;5.80;61.46;99752.97;5054626;28;20314;-60
2022/01/05 08:04:49;;;;;;;10.33;1.53;;;;;;;5.63;60.63;99757.03;5074658;28;20546;-60
2022/01/05 08:07:17;;;;;;;5.13;1.40;;;;;;;5.73;61.01;99756.25;5069238;28;20230;-60
2022/01/05 08:09:44;;;;;;;7.40;1.30;;;;;;;5.76;60.49;99762.09;5075004;28;20637;-59
2022/01/05 08:12:12;;;;;;;6.90;1.23;;;;;;;5.66;60.95;99772.56;5078583;28;20238;-59
2022/01/05 08:14:40;;;;;;;3.10;1.10;;;;;;;5.64;60.90;99779.75;5073075;28;20808;-60
2022/01/05 08:17:08;;;;;;;6.60;1.60;;;;;;;5.80;61.39;99776.66;5070528;28;20226;-61
2022/01/05 08:19:36;;;;;;;10.87;2.17;;;;;;;5.79;61.37;99777.59;5077187;28;20215;-61
2022/01/05 08:22:05;;;;;;;6.17;1.50;;;;;;;5.79;60.51;99764.44;5071668;28;20227;-61
2022/01/05 08:24:33;;;;;;;5.07;1.40;;;;;;;5.77;60.25;99765.53;5070645;28;20234;-60
2022/01/05 08:27:01;;;;;;;5.27;1.27;;;;;;;5.82;60.72;99761.53;5080667;28;20211;-59
2022/01/05 08:29:29;;;;;;;7.10;1.30;;;;;;;5.78;59.85;99760.16;5070220;28;20204;-60
2022/01/05 08:31:58;;;;;;;8.53;1.33;;;;;;;5.53;61.50;99771.16;5079857;28;20207;-60
2022/01/05 08:34:26;;;;;;;5.80;1.30;;;;;;;5.68;62.19;99773.28;5080506;28;20203;-60
2022/01/05 08:36:54;;;;;;;4.30;0.90;;;;;;;5.69;62.30;99774.09;5067771;28;20242;-59
2022/01/05 08:39:23;;;;;;;5.00;1.77;;;;;;;6.01;61.78;99776.56;5081967;28;20302;-59
2022/01/05 08:41:51;;;;;;;8.27;1.43;;;;;;;5.90;60.97;99784.56;5054099;28;20402;-61
2022/01/05 08:44:19;;;;;;;4.83;1.30;;;;;;;5.71;61.76;99795.03;5078692;28;20231;-60
2022/01/05 08:46:47;;;;;;;6.47;1.27;;;;;;;5.64;61.10;99797.34;5073047;28;20271;-62
2022/01/05 08:49:15;;;;;;;12.67;2.30;;;;;;;5.78;61.88;99807.50;5068469;28;20220;-59
2022/01/05 08:51:43;;;;;;;7.97;2.37;;;;;;;5.64;61.56;99807.84;5065992;28;20704;-60
2022/01/05 08:54:11;;;;;;;7.97;1.53;;;;;;;5.83;61.03;99812.34;5071697;28;20261;-59
2022/01/05 08:56:40;;;;;;;8.10;1.70;;;;;;;5.92;60.41;99809.78;5084414;28;20289;-59
2022/01/05 08:59:08;;;;;;;7.17;1.80;;;;;;;5.84;61.05;99809.59;5086034;28;20211;-59
2022/01/05 09:01:36;;;;;;;12.43;2.80;;;;;;;5.71;60.78;99814.28;5085080;28;20306;-58
2022/01/05 09:04:04;;;;;;;4.63;1.40;;;;;;;5.85;60.29;99823.59;5088127;28;20222;-60
2022/01/05 09:06:32;;;;;;;7.20;1.60;;;;;;;5.93;60.19;99821.97;5081397;28;20226;-60
2022/01/05 09:08:59;;;;;;;10.77;1.60;;;;;;;5.82;61.26;99831.72;5084609;28;20206;-60
2022/01/05 09:11:27;;;;;;;7.83;1.70;;;;;;;5.52;60.76;99824.72;5085522;28;20672;-60
2022/01/05 09:13:56;;;;;;;10.00;1.43;;;;;;;5.58;60.04;99832.91;5081890;28;20609;-60
2022/01/05 09:16:24;;;;;;;8.03;1.53;;;;;;;5.79;61.38;99834.66;5089724;28;20213;-60
2022/01/05 09:18:52;;;;;;;8.30;1.57;;;;;;;5.90;59.32;99837.19;5073216;28;20294;-60
2022/01/05 09:21:20;;;;;;;7.87;1.33;;;;;;;5.77;59.57;99839.22;5072643;28;20212;-60
2022/01/05 09:23:50;;;;;;;8.40;1.20;;;;;;;5.69;59.66;99834.59;5069069;28;20223;-60
2022/01/05 09:26:17;;;;;;;9.63;1.30;;;;;;;5.73;58.49;99841.25;5071919;28;20691;-60
2022/01/05 09:28:45;;;;;;;7.57;1.60;;;;;;;5.80;59.37;99838.94;5092651;28;20579;-60
2022/01/05 09:31:14;;;;;;;7.87;1.60;;;;;;;5.56;59.10;99845.34;5073854;28;20581;-61
2022/01/05 09:33:42;;;;;;;4.83;1.73;;;;;;;6.06;59.14;99842.81;5080362;28;20257;-59
2022/01/05 09:36:15;;;;;;;11.90;1.50;;;;;;;5.84;59.52;99849.06;5084278;28;20247;-60
2022/01/05 09:44:12;;;;;;;6.63;2.00;;;;;;;6.00;59.02;99867.00;5073120;28;20250;-59
2022/01/05 09:47:02;;;;;;;5.97;1.43;;;;;;;6.30;59.10;99872.22;5086972;28;20577;-58
2022/01/05 09:49:34;;;;;;;8.30;2.17;;;;;;;6.04;59.88;99868.41;5058428;28;20224;-60
2022/01/05 09:52:06;;;;;;;7.43;1.43;;;;;;;6.12;60.24;99871.22;5071904;28;20212;-59
2022/01/05 09:54:34;;;;;;;11.27;1.90;;;;;;;5.90;60.70;99880.13;5074179;28;20299;-59
2022/01/05 09:57:04;;;;;;;9.03;1.93;;;;;;;5.93;59.95;99873.78;5059050;28;20306;-60
2022/01/05 09:59:35;;;;;;;8.40;1.70;;;;;;;5.95;59.74;99877.94;5073601;28;20221;-61
2022/01/05 10:02:06;;;;;;;8.70;1.43;;;;;;;6.00;60.13;99874.91;5085235;28;20233;-58
2022/01/05 10:04:36;;;;;;;8.57;1.77;;;;;;;6.17;60.33;99878.69;5083263;28;20291;-61
2022/01/05 10:07:08;;;;;;;13.00;1.67;;;;;;;5.86;59.50;99872.63;5081505;28;20215;-60
2022/01/05 10:09:37;;;;;;;6.90;1.57;;;;;;;6.29;59.84;99878.47;5077102;28;21150;-60
2022/01/05 10:12:06;;;;;;;6.60;1.60;;;;;;;7.85;56.56;99868.47;5056769;28;20204;-61
2022/01/05 10:14:34;;;;;;;5.70;1.80;;;;;;;11.50;47.13;99873.31;5072760;28;20664;-58
2022/01/05 10:17:06;;;;;;;10.13;1.83;;;;;;;12.06;44.34;99879.47;5081271;28;20248;-59
2022/01/05 10:19:35;;;;;;;9.43;1.87;;;;;;;12.80;42.23;99886.09;5071556;28;20210;-60
2022/01/05 10:22:05;;;;;;;10.13;1.63;;;;;;;13.04;40.63;99885.91;5081570;28;20213;-61
2022/01/05 10:24:43;;;;;;;11.20;2.10;;;;;;;11.62;42.96;99887.03;5075902;28;20322;-61
2022/01/05 10:27:16;;;;;;;11.00;1.90;;;;;;;9.23;48.67;99885.81;5089528;28;20213;-61
2022/01/05 10:29:52;;;;;;;9.40;1.83;;;;;;;8.44;50.96;99903.41;5084518;28;20224;-60
2022/01/05 10:32:21;;;;;;;10.53;2.17;;;;;;;10.05;48.45;99898.56;5079166;28;20209;-60
2022/01/05 10:35:09;;;;;;;7.43;2.10;;;;;;;7.98;52.32;99894.56;5082325;28;20241;-62
2022/01/05 10:37:39;;;;;;;15.57;3.23;;;;;;;8.34;52.50;99903.44;5080018;28;20226;-60
2022/01/05 10:40:14;;;;;;;8.23;1.97;;;;;;;10.56;47.19;99897.59;5073405;28;20652;-61
2022/01/05 10:42:44;;;;;;;8.90;1.77;;;;;;;14.40;39.86;99896.41;5071883;28;20714;-61
2022/01/05 10:45:15;;;;;;;5.97;1.43;;;;;;;14.22;38.64;99902.09;5081643;28;20224;-61
2022/01/05 10:48:02;;;;;;;5.00;1.70;;;;;;;13.36;39.46;99900.00;5081193;28;20443;-60
2022/01/05 10:50:29;;;;;;;8.57;2.00;;;;;;;15.05;36.47;99907.81;5077875;28;20215;-61
2022/01/05 10:52:58;;;;;;;7.87;1.80;;;;;;;16.21;35.20;99905.63;5071057;28;20263;-60
2022/01/05 10:55:28;;;;;;;7.50;2.20;;;;;;;15.59;34.32;99895.75;5077397;28;20243;-60
2022/01/05 10:57:58;;;;;;;6.55;1.75;;;;;;;14.88;36.07;99913.56;5071355;28;20203;-60
2022/01/05 11:00:36;;;;;;;6.57;1.77;;;;;;;13.45;38.26;99912.25;5081547;28;20306;-61
2022/01/05 11:03:21;;;;;;;9.57;2.08;;;;;;;11.94;41.65;99912.75;5080843;28;20293;-61
2022/01/05 11:06:01;;;;;;;6.25;2.05;;;;;;;11.20;43.45;99922.56;5081863;28;20298;-62
2022/01/05 11:08:30;;;;;;;6.47;1.92;;;;;;;11.42;44.50;99918.44;5081393;28;20215;-60
2022/01/05 11:10:58;;;;;;;6.53;1.75;;;;;;;10.47;44.80;99916.28;5075377;28;20212;-61
2022/01/05 11:13:27;;;;;;;6.97;1.80;;;;;;;11.08;44.63;99912.47;5084619;28;20202;-61
2022/01/05 11:15:57;;;;;;;6.93;2.20;;;;;;;10.99;44.44;99906.34;5073700;28;20219;-61
2022/01/05 11:18:30;;;;;;;9.03;1.90;;;;;;;10.62;45.40;99909.41;5070639;28;20628;-60
2022/01/05 11:21:01;;;;;;;10.67;2.10;;;;;;;11.82;43.01;99911.44;5057681;28;20204;-61
2022/01/05 11:23:31;;;;;;;7.70;2.00;;;;;;;10.81;44.19;99913.59;5068649;28;20232;-61
2022/01/05 11:26:00;;;;;;;6.43;2.00;;;;;;;10.76;45.89;99916.72;5066017;28;20314;-60
2022/01/05 11:28:29;;;;;;;5.13;1.83;;;;;;;11.76;43.49;99922.75;5082028;28;20253;-60
2022/01/05 11:30:59;;;;;;;5.60;1.80;;;;;;;12.27;40.37;99911.63;5073236;28;20213;-61
2022/01/05 11:33:28;;;;;;;7.37;1.73;;;;;;;12.15;40.39;99923.63;5078894;28;20215;-61
2022/01/05 11:35:58;;;;;;;6.57;1.73;;;;;;;12.77;40.43;99921.00;5075161;28;20298;-60
2022/01/05 11:38:26;;;;;;;9.83;1.67;;;;;;;11.22;42.33;99927.72;5073706;28;20204;-60
2022/01/05 11:40:55;;;;;;;7.43;2.03;;;;;;;10.15;45.14;99920.47;5066733;28;20215;-60
2022/01/05 11:43:25;;;;;;;9.73;2.90;;;;;;;10.09;46.28;99929.06;5069884;28;20230;-61
2022/01/05 11:45:54;;;;;;;10.00;2.20;;;;;;;9.73;47.57;99924.88;5080179;28;20215;-61
2022/01/05 11:48:26;;;;;;;8.93;2.07;;;;;;;8.56;49.29;99936.53;5085484;28;20208;-61
2022/01/05 11:50:57;;;;;;;6.70;1.40;;;;;;;8.24;50.03;99929.88;5060831;28;20749;-60
2022/01/05 11:53:38;;;;;;;8.17;1.80;;;;;;;8.19;50.06;99933.91;5079790;28;20242;-61